Time;durP1;ratioP1;P1;durP2;ratioP2;P2;SDS_P1;SDS_P2;PMS_P1;PMS_P2;Temp;Humidity;BMP_temperature;BMP_pressure;BME280_temperature;BME280_humidity;BME280_pressure;Samples;Min_cycle;Max_cycle;Signal;HPM_P1;HPM_P2
2022/12/20 00:00:02;;;;;;;0.95;0.45;;;8.10;99.90;;;;;;6243991;23;20016;-86
2022/12/20 00:02:27;;;;;;;0.50;0.17;;;8.10;99.90;;;;;;6192300;23;20099;-80
2022/12/20 00:04:53;;;;;;;0.47;0.47;;;8.10;99.90;;;;;;6193720;23;20051;-80
2022/12/20 00:07:19;;;;;;;1.33;0.60;;;8.10;99.90;;;;;;6235523;23;20020;-80
2022/12/20 00:09:44;;;;;;;0.20;0.20;;;8.10;99.90;;;;;;6188071;23;20457;-80
2022/12/20 00:12:10;;;;;;;0.83;0.40;;;8.10;99.90;;;;;;6187024;23;20017;-81
2022/12/20 00:14:36;;;;;;;0.30;0.30;;;8.10;99.90;;;;;;6163879;23;20024;-80
2022/12/20 00:17:01;;;;;;;0.50;0.33;;;8.20;99.90;;;;;;6163265;23;20060;-80
2022/12/20 00:19:27;;;;;;;0.30;0.30;;;8.00;99.90;;;;;;6189318;23;20016;-80
2022/12/20 00:21:53;;;;;;;0.57;0.30;;;8.10;99.90;;;;;;6166329;23;20016;-80
2022/12/20 00:24:18;;;;;;;0.40;0.40;;;8.00;99.90;;;;;;6190729;23;20017;-81
2022/12/20 00:26:44;;;;;;;1.30;0.50;;;8.00;99.90;;;;;;6142182;23;20028;-81
2022/12/20 00:29:10;;;;;;;0.50;0.47;;;8.00;99.90;;;;;;6190073;23;20020;-80
2022/12/20 00:31:35;;;;;;;0.53;0.40;;;8.10;99.90;;;;;;6191180;23;20021;-80
2022/12/20 00:34:01;;;;;;;0.20;0.20;;;8.20;99.90;;;;;;6191581;23;20019;-80
2022/12/20 00:36:29;;;;;;;0.67;0.20;;;8.20;99.90;;;;;;6166275;23;20020;-80
2022/12/20 00:38:57;;;;;;;0.43;0.38;;;8.20;99.90;;;;;;6191357;23;20091;-81
2022/12/20 00:41:29;;;;;;;0.60;0.40;;;8.30;99.90;;;;;;6190393;23;20022;-81
2022/12/20 00:43:55;;;;;;;0.35;0.30;;;8.30;99.90;;;;;;6218066;23;20016;-80
2022/12/20 00:46:22;;;;;;;0.30;0.20;;;8.30;99.90;;;;;;6190788;23;20067;-81
2022/12/20 00:48:48;;;;;;;0.63;0.32;;;8.30;99.90;;;;;;6191626;23;20020;-80
2022/12/20 00:51:19;;;;;;;0.43;0.43;;;8.30;99.90;;;;;;6217435;23;20016;-80
2022/12/20 00:53:45;;;;;;;0.40;0.40;;;8.30;99.90;;;;;;6191050;23;20024;-80
2022/12/20 00:56:12;;;;;;;0.40;0.40;;;8.30;99.90;;;;;;6190382;23;20016;-81
2022/12/20 00:58:40;;;;;;;1.27;0.30;;;8.40;99.90;;;;;;6191367;23;20020;-80
2022/12/20 01:01:14;;;;;;;0.40;0.40;;;8.40;99.90;;;;;;6165950;23;20353;-80
2022/12/20 01:03:39;;;;;;;0.32;0.20;;;8.40;99.90;;;;;;6191265;23;20021;-80
2022/12/20 01:06:05;;;;;;;0.97;0.73;;;8.50;99.90;;;;;;6166672;23;20025;-80
2022/12/20 01:08:31;;;;;;;0.87;0.73;;;8.50;99.90;;;;;;6163957;23;20008;-80
2022/12/20 01:11:10;;;;;;;0.43;0.30;;;8.50;99.90;;;;;;6247735;23;20326;-80
2022/12/20 01:13:38;;;;;;;0.63;0.50;;;8.50;99.90;;;;;;6247397;23;20235;-80
2022/12/20 01:16:11;;;;;;;0.63;0.40;;;8.50;99.90;;;;;;6221649;23;20109;-80
2022/12/20 01:18:36;;;;;;;0.55;0.52;;;8.50;99.90;;;;;;6220707;23;20066;-80
2022/12/20 01:21:04;;;;;;;0.30;0.23;;;8.50;99.90;;;;;;6171242;23;20016;-80
2022/12/20 01:23:30;;;;;;;0.10;0.10;;;8.50;99.90;;;;;;6247044;23;20027;-80
2022/12/20 01:25:58;;;;;;;0.30;0.20;;;8.50;99.90;;;;;;6221730;23;20039;-80
2022/12/20 01:28:24;;;;;;;0.57;0.52;;;8.60;99.90;;;;;;6195958;23;20027;-80
2022/12/20 01:30:49;;;;;;;0.87;0.43;;;8.60;99.90;;;;;;6218542;23;20012;-80
2022/12/20 01:33:15;;;;;;;0.73;0.50;;;8.60;99.90;;;;;;6193571;23;20071;-81
2022/12/20 01:35:41;;;;;;;1.23;0.60;;;8.60;99.90;;;;;;6220007;23;20016;-80
2022/12/20 01:38:06;;;;;;;0.40;0.40;;;8.50;99.90;;;;;;6219438;23;20048;-80
2022/12/20 01:40:32;;;;;;;0.20;0.20;;;8.50;99.90;;;;;;6218838;23;20016;-80
2022/12/20 01:42:58;;;;;;;2.33;0.57;;;8.50;99.90;;;;;;6194710;23;20012;-80
2022/12/20 01:45:29;;;;;;;0.10;0.10;;;8.50;99.90;;;;;;6218457;23;20020;-80
2022/12/20 01:47:57;;;;;;;0.28;0.22;;;8.50;99.90;;;;;;6194556;23;20027;-80
2022/12/20 01:50:24;;;;;;;0.30;0.10;;;8.50;99.90;;;;;;6245700;23;20027;-80
2022/12/20 01:52:51;;;;;;;0.40;0.40;;;8.50;99.90;;;;;;6218677;23;20019;-80
2022/12/20 01:55:21;;;;;;;0.30;0.20;;;8.60;99.90;;;;;;6218667;23;20321;-85
2022/12/20 01:57:59;;;;;;;0.65;0.40;;;8.60;99.90;;;;;;6219509;23;20471;-81
2022/12/20 02:00:25;;;;;;;0.32;0.10;;;8.50;99.90;;;;;;6219033;23;20527;-81
2022/12/20 02:02:52;;;;;;;0.70;0.55;;;8.60;99.90;;;;;;6218521;23;20402;-80
2022/12/20 02:05:21;;;;;;;1.20;0.50;;;8.50;99.90;;;;;;6192759;23;20016;-84
2022/12/20 02:07:49;;;;;;;1.50;0.40;;;8.50;99.90;;;;;;6219137;23;20405;-80
2022/12/20 02:10:17;;;;;;;0.30;0.30;;;8.50;99.90;;;;;;6219379;23;20016;-81
2022/12/20 02:12:47;;;;;;;0.30;0.25;;;8.60;99.90;;;;;;6218506;23;20016;-80
2022/12/20 02:15:34;;;;;;;0.20;0.20;;;8.60;99.90;;;;;;6169158;23;20024;-80
2022/12/20 02:18:11;;;;;;;0.60;0.32;;;8.60;99.90;;;;;;6219449;23;20012;-80
2022/12/20 02:21:02;;;;;;;0.10;0.10;;;8.70;99.90;;;;;;6218808;23;20016;-80
2022/12/20 02:23:57;;;;;;;0.55;0.35;;;8.70;99.90;;;;;;6217748;23;20012;-81
2022/12/20 02:27:00;;;;;;;0.17;0.17;;;8.70;99.90;;;;;;6218591;23;20019;-85
2022/12/20 02:30:03;;;;;;;1.75;0.22;;;8.70;99.90;;;;;;6193073;23;20094;-81
2022/12/20 02:32:58;;;;;;;0.55;0.55;;;8.60;99.90;;;;;;6192837;23;20020;-80
2022/12/20 02:35:30;;;;;;;0.50;0.30;;;8.70;99.90;;;;;;6245128;23;20020;-85
2022/12/20 02:37:58;;;;;;;0.47;0.28;;;8.70;99.90;;;;;;6219160;23;20102;-80
2022/12/20 02:40:28;;;;;;;0.10;0.10;;;8.70;99.90;;;;;;6193858;23;20016;-84
2022/12/20 02:45:13;;;;;;;0.40;0.40;;;8.70;99.90;;;;;;6193672;23;20047;-80
2022/12/20 02:45:49;;;;;;;0.35;0.22;;;8.70;99.90;;;;;;6218261;23;20059;-80
2022/12/20 02:48:16;;;;;;;0.57;0.52;;;8.70;99.90;;;;;;6219100;23;20504;-80
2022/12/20 02:50:48;;;;;;;0.57;0.30;;;8.70;99.90;;;;;;6218580;23;20341;-81
2022/12/20 02:53:15;;;;;;;0.80;0.47;;;8.70;99.90;;;;;;6193243;23;20091;-80
2022/12/20 02:55:48;;;;;;;0.40;0.40;;;8.70;99.90;;;;;;6192739;23;20027;-80
2022/12/20 02:58:26;;;;;;;0.32;0.30;;;8.60;99.90;;;;;;6219163;23;20016;-80
2022/12/20 03:00:55;;;;;;;0.08;0.08;;;8.60;99.90;;;;;;6218698;23;20020;-80
2022/12/20 03:03:21;;;;;;;0.10;0.10;;;8.60;99.90;;;;;;6193563;23;20024;-80
2022/12/20 03:05:49;;;;;;;2.83;0.40;;;8.50;99.90;;;;;;6217823;23;20051;-80
2022/12/20 03:08:15;;;;;;;0.90;0.40;;;8.50;99.90;;;;;;6193548;23;20487;-80
2022/12/20 03:10:41;;;;;;;1.08;0.50;;;8.40;99.90;;;;;;6244882;23;20448;-80
2022/12/20 03:13:07;;;;;;;0.40;0.20;;;8.40;99.90;;;;;;6218505;23;20022;-80
2022/12/20 03:15:32;;;;;;;0.75;0.30;;;8.40;99.90;;;;;;6192861;23;20054;-80
2022/12/20 03:17:58;;;;;;;0.57;0.40;;;8.30;99.90;;;;;;6193863;23;20016;-80
2022/12/20 03:20:24;;;;;;;0.30;0.30;;;8.30;99.90;;;;;;6218918;23;20016;-80
2022/12/20 03:22:49;;;;;;;0.73;0.47;;;8.20;99.90;;;;;;6193224;23;20046;-80
2022/12/20 03:25:16;;;;;;;0.73;0.30;;;8.30;99.90;;;;;;6244639;23;20031;-81
2022/12/20 03:27:41;;;;;;;0.40;0.38;;;8.30;99.90;;;;;;6193041;23;20019;-80
2022/12/20 03:30:08;;;;;;;0.33;0.30;;;8.20;99.90;;;;;;6193675;23;20012;-81
2022/12/20 03:32:34;;;;;;;0.80;0.35;;;8.20;99.90;;;;;;6218141;23;20463;-81
2022/12/20 03:34:59;;;;;;;0.40;0.30;;;8.20;99.90;;;;;;6217813;23;20052;-84
2022/12/20 03:37:25;;;;;;;0.03;0.03;;;8.20;99.90;;;;;;6218498;23;20016;-81
2022/12/20 03:39:51;;;;;;;0.30;0.20;;;8.20;99.90;;;;;;6193147;23;20038;-81
2022/12/20 03:42:16;;;;;;;0.77;0.20;;;8.30;99.90;;;;;;6193644;23;20016;-80
2022/12/20 03:44:42;;;;;;;1.08;0.32;;;8.20;99.90;;;;;;6217313;23;20039;-81
2022/12/20 03:47:08;;;;;;;0.27;0.20;;;8.40;99.90;;;;;;6193656;23;20017;-81
2022/12/20 03:49:34;;;;;;;1.15;0.75;;;8.20;99.90;;;;;;6192970;23;20020;-82
2022/12/20 03:51:59;;;;;;;0.30;0.30;;;8.20;99.90;;;;;;6168516;23;20095;-81
2022/12/20 03:54:25;;;;;;;0.47;0.30;;;8.20;99.90;;;;;;6244459;23;20035;-81
2022/12/20 03:56:51;;;;;;;0.00;0.00;;;8.40;99.90;;;;;;6189115;23;20026;-83
2022/12/20 03:59:16;;;;;;;0.33;0.20;;;8.30;99.90;;;;;;6192692;23;20020;-81
2022/12/20 04:01:42;;;;;;;0.10;0.10;;;8.30;99.90;;;;;;6166084;23;20020;-82
2022/12/20 04:04:11;;;;;;;1.03;0.53;;;8.30;99.90;;;;;;6167072;23;20016;-81
2022/12/20 04:06:37;;;;;;;1.17;0.40;;;8.60;99.90;;;;;;6216595;23;20020;-81
2022/12/20 04:09:03;;;;;;;1.30;0.60;;;8.30;99.90;;;;;;6217006;23;20016;-81
2022/12/20 04:11:28;;;;;;;0.40;0.40;;;8.60;99.90;;;;;;6193239;23;20341;-81
2022/12/20 04:13:54;;;;;;;0.53;0.10;;;8.40;99.90;;;;;;6217397;23;20024;-80
2022/12/20 04:16:23;;;;;;;0.53;0.50;;;8.30;99.90;;;;;;6192763;23;20342;-81
2022/12/20 04:18:49;;;;;;;0.60;0.57;;;8.30;99.90;;;;;;6217945;23;20016;-81
2022/12/20 04:21:20;;;;;;;0.40;0.40;;;8.40;99.90;;;;;;6218384;23;20024;-81
2022/12/20 04:23:46;;;;;;;1.02;0.52;;;8.40;99.90;;;;;;6217802;23;20027;-81
2022/12/20 04:26:12;;;;;;;0.63;0.17;;;8.90;99.90;;;;;;6218178;23;20012;-81
2022/12/20 04:28:38;;;;;;;0.32;0.20;;;8.50;99.90;;;;;;6218185;23;20016;-86
2022/12/20 04:31:03;;;;;;;0.57;0.30;;;8.60;99.90;;;;;;6193223;23;20344;-81
2022/12/20 04:33:29;;;;;;;0.20;0.20;;;8.60;99.90;;;;;;6218079;23;20150;-81
2022/12/20 04:35:55;;;;;;;0.40;0.40;;;8.50;99.90;;;;;;6243856;23;20468;-81
2022/12/20 04:38:21;;;;;;;0.67;0.40;;;8.60;99.90;;;;;;6218269;23;20012;-81
2022/12/20 04:40:48;;;;;;;0.28;0.28;;;8.50;99.90;;;;;;6192251;23;20344;-81
2022/12/20 04:43:15;;;;;;;0.10;0.10;;;8.50;99.90;;;;;;6193390;23;20437;-81
2022/12/20 04:45:40;;;;;;;0.60;0.60;;;8.50;99.90;;;;;;6167504;23;20020;-84
2022/12/20 04:48:06;;;;;;;0.43;0.43;;;8.50;99.90;;;;;;6218597;23;20059;-81
2022/12/20 04:50:32;;;;;;;0.60;0.57;;;8.50;99.90;;;;;;6244887;23;20429;-81
2022/12/20 04:55:41;;;;;;;1.00;0.30;;;8.60;99.90;;;;;;6196446;23;20023;-85
2022/12/20 04:58:07;;;;;;;0.47;0.40;;;8.60;99.90;;;;;;6193406;23;20091;-81
2022/12/20 05:00:34;;;;;;;1.27;1.17;;;8.60;99.90;;;;;;6192955;23;20337;-82
2022/12/20 05:02:59;;;;;;;0.35;0.35;;;8.70;99.90;;;;;;6217586;23;20262;-81
2022/12/20 05:05:26;;;;;;;2.17;0.57;;;8.70;99.90;;;;;;6245846;23;20484;-81
2022/12/20 05:07:52;;;;;;;0.28;0.28;;;8.70;99.90;;;;;;6193820;23;20028;-81
2022/12/20 05:10:18;;;;;;;0.80;0.50;;;8.70;99.90;;;;;;6219493;23;20453;-81
2022/12/20 05:12:44;;;;;;;0.30;0.20;;;8.80;99.90;;;;;;6219487;23;20019;-85
2022/12/20 05:15:11;;;;;;;0.43;0.30;;;8.90;99.90;;;;;;6219968;23;20457;-81
2022/12/20 05:17:36;;;;;;;0.40;0.40;;;8.80;99.90;;;;;;6219954;23;20378;-81
2022/12/20 05:20:03;;;;;;;0.13;0.10;;;8.80;99.90;;;;;;6168968;23;20020;-81
2022/12/20 05:27:58;;;;;;;0.73;0.47;;;8.90;99.90;;;;;;6219322;23;20074;-81
2022/12/20 05:30:24;;;;;;;0.30;0.30;;;8.90;99.90;;;;;;6220052;23;20020;-82
2022/12/20 05:32:50;;;;;;;0.32;0.30;;;8.90;99.90;;;;;;6245053;23;20012;-82
2022/12/20 05:35:16;;;;;;;0.17;0.17;;;9.00;99.90;;;;;;6194814;23;20022;-81
2022/12/20 05:37:42;;;;;;;0.10;0.10;;;9.00;99.90;;;;;;6170272;23;20027;-81
2022/12/20 05:40:08;;;;;;;0.20;0.20;;;9.00;99.90;;;;;;6169314;23;20489;-82
2022/12/20 05:42:34;;;;;;;0.30;0.17;;;9.10;99.90;;;;;;6219331;23;20511;-81
2022/12/20 05:45:00;;;;;;;0.05;0.05;;;9.10;99.90;;;;;;6168984;23;20016;-81
2022/12/20 05:47:27;;;;;;;0.23;0.20;;;9.10;99.90;;;;;;6194124;23;20016;-81
2022/12/20 05:49:52;;;;;;;1.35;0.60;;;9.10;99.90;;;;;;6218611;23;20607;-82
2022/12/20 05:52:18;;;;;;;0.57;0.27;;;9.10;99.90;;;;;;6245972;23;20016;-81
2022/12/20 05:54:44;;;;;;;0.67;0.30;;;9.10;99.90;;;;;;6194860;23;20102;-81
2022/12/20 05:57:10;;;;;;;1.10;0.40;;;9.20;99.90;;;;;;6218429;23;20038;-81
2022/12/20 05:59:35;;;;;;;0.57;0.20;;;9.20;99.90;;;;;;6219686;23;20016;-81
2022/12/20 06:02:01;;;;;;;0.57;0.10;;;9.20;99.90;;;;;;6168492;23;20012;-81
2022/12/20 06:04:27;;;;;;;0.53;0.53;;;9.20;99.90;;;;;;6219590;23;20023;-81
2022/12/20 06:06:52;;;;;;;0.33;0.30;;;9.20;99.90;;;;;;6218139;23;20024;-82
2022/12/20 06:09:18;;;;;;;0.30;0.30;;;9.10;99.90;;;;;;6194635;23;20016;-81
2022/12/20 06:11:44;;;;;;;0.40;0.40;;;9.10;99.90;;;;;;6194555;23;20047;-81
2022/12/20 06:14:10;;;;;;;1.00;0.47;;;9.10;99.90;;;;;;6193768;23;20035;-81
2022/12/20 06:16:35;;;;;;;0.77;0.30;;;9.10;99.90;;;;;;6218643;23;20258;-81
2022/12/20 06:19:01;;;;;;;0.20;0.10;;;9.10;99.90;;;;;;6215559;23;20043;-82
2022/12/20 06:21:27;;;;;;;0.52;0.30;;;9.10;99.90;;;;;;6194800;23;20437;-81
2022/12/20 06:23:53;;;;;;;0.10;0.10;;;9.20;99.90;;;;;;6218899;23;20020;-85
2022/12/20 06:26:22;;;;;;;1.55;0.45;;;9.10;99.90;;;;;;6219481;23;20030;-81
2022/12/20 06:28:51;;;;;;;0.30;0.28;;;9.20;99.90;;;;;;6194244;23;20028;-81
2022/12/20 06:31:17;;;;;;;0.30;0.30;;;9.20;99.90;;;;;;6218030;23;20026;-81
2022/12/20 06:33:43;;;;;;;0.20;0.20;;;9.30;99.90;;;;;;6194213;23;20012;-81
2022/12/20 06:36:09;;;;;;;0.20;0.20;;;9.20;99.90;;;;;;6217521;23;20018;-81
2022/12/20 06:38:35;;;;;;;0.63;0.20;;;9.20;99.90;;;;;;6193708;23;20052;-82
2022/12/20 06:41:01;;;;;;;0.10;0.10;;;9.30;99.90;;;;;;6244765;23;20020;-81
2022/12/20 06:43:27;;;;;;;0.30;0.30;;;9.30;99.90;;;;;;6194157;23;20020;-81
2022/12/20 06:45:52;;;;;;;0.83;0.20;;;9.30;99.90;;;;;;6169111;23;20024;-81
2022/12/20 06:48:20;;;;;;;0.73;0.30;;;9.30;99.90;;;;;;6244306;23;20012;-81
2022/12/20 06:50:47;;;;;;;0.10;0.10;;;9.30;99.90;;;;;;6193522;23;20042;-81
2022/12/20 06:53:13;;;;;;;0.15;0.15;;;9.20;99.90;;;;;;6192833;23;20016;-80
2022/12/20 06:55:39;;;;;;;0.63;0.40;;;9.20;99.90;;;;;;6245870;23;20071;-80
2022/12/20 06:58:04;;;;;;;0.30;0.20;;;9.20;99.90;;;;;;6218235;23;20051;-81
2022/12/20 07:00:30;;;;;;;0.47;0.30;;;9.20;99.90;;;;;;6218969;23;20016;-81
2022/12/20 07:02:56;;;;;;;0.20;0.20;;;9.10;99.90;;;;;;6219010;23;20075;-84
2022/12/20 07:05:22;;;;;;;0.37;0.37;;;9.10;99.90;;;;;;6217558;23;20035;-82
2022/12/20 07:07:48;;;;;;;0.30;0.20;;;9.10;99.90;;;;;;6217888;23;20115;-81
2022/12/20 07:10:14;;;;;;;0.30;0.13;;;9.10;99.90;;;;;;6217889;23;20433;-81
2022/12/20 07:12:39;;;;;;;0.50;0.50;;;9.10;99.90;;;;;;6218733;23;20023;-81
2022/12/20 07:15:07;;;;;;;0.55;0.20;;;9.10;99.90;;;;;;6143758;23;20020;-82
2022/12/20 07:17:33;;;;;;;1.35;0.88;;;9.10;99.90;;;;;;6193967;23;20120;-80
2022/12/20 07:19:59;;;;;;;0.40;0.40;;;9.10;99.90;;;;;;6217769;23;20016;-84
2022/12/20 07:22:25;;;;;;;0.93;0.27;;;9.10;99.90;;;;;;6218028;23;20008;-81
2022/12/20 07:24:50;;;;;;;0.30;0.20;;;9.10;99.90;;;;;;6218900;23;20105;-81
2022/12/20 07:27:16;;;;;;;0.57;0.27;;;9.10;99.90;;;;;;6217126;23;20070;-81
2022/12/20 07:29:42;;;;;;;0.10;0.10;;;9.10;99.90;;;;;;6193368;23;20019;-80
2022/12/20 07:32:08;;;;;;;0.33;0.20;;;9.10;99.90;;;;;;6217491;23;20100;-81
2022/12/20 07:34:35;;;;;;;0.63;0.50;;;9.20;99.90;;;;;;6169099;23;20020;-81
2022/12/20 07:37:01;;;;;;;0.65;0.63;;;9.20;99.90;;;;;;6217747;23;20016;-84
2022/12/20 07:39:27;;;;;;;0.30;0.23;;;9.20;99.90;;;;;;6217831;23;20102;-81
2022/12/20 07:41:57;;;;;;;0.43;0.30;;;9.20;99.90;;;;;;6193123;23;20016;-81
2022/12/20 07:44:22;;;;;;;0.93;0.50;;;9.20;99.90;;;;;;6168471;23;20047;-81
2022/12/20 07:46:48;;;;;;;0.33;0.33;;;9.20;99.90;;;;;;6218362;23;20344;-81
2022/12/20 07:49:14;;;;;;;0.30;0.30;;;9.30;99.90;;;;;;6244639;23;20042;-82
2022/12/20 07:51:44;;;;;;;0.30;0.30;;;9.20;99.90;;;;;;6245157;23;20429;-81
2022/12/20 07:54:14;;;;;;;0.45;0.40;;;9.20;99.90;;;;;;6216906;23;20024;-82
2022/12/20 07:56:44;;;;;;;0.93;0.50;;;9.20;99.90;;;;;;6219018;23;20359;-81
2022/12/20 07:59:12;;;;;;;1.10;0.70;;;9.20;99.90;;;;;;6244144;23;20050;-82
2022/12/20 08:01:41;;;;;;;0.32;0.20;;;9.20;99.90;;;;;;6193369;23;20095;-82
2022/12/20 08:04:13;;;;;;;0.57;0.52;;;9.20;99.90;;;;;;6217300;23;20384;-85
2022/12/20 08:06:40;;;;;;;0.40;0.40;;;9.20;99.90;;;;;;6217549;23;20027;-82
2022/12/20 08:09:08;;;;;;;0.20;0.20;;;9.20;99.90;;;;;;6217599;23;20064;-86
2022/12/20 08:11:36;;;;;;;0.38;0.20;;;9.30;99.90;;;;;;6168905;23;20022;-80
2022/12/20 08:14:03;;;;;;;0.45;0.45;;;9.30;99.90;;;;;;6167373;23;20012;-81
2022/12/20 08:16:30;;;;;;;0.30;0.10;;;9.30;99.90;;;;;;6191577;23;20024;-81
2022/12/20 08:18:55;;;;;;;0.15;0.15;;;9.30;99.90;;;;;;6192908;23;20102;-81
2022/12/20 08:21:21;;;;;;;0.50;0.30;;;9.40;99.90;;;;;;6217580;23;20101;-82
2022/12/20 08:23:47;;;;;;;1.20;0.40;;;9.30;99.90;;;;;;6217865;23;20444;-81
2022/12/20 08:26:13;;;;;;;0.43;0.43;;;9.30;99.90;;;;;;6167976;23;20008;-81
2022/12/20 08:28:39;;;;;;;0.00;0.00;;;9.40;99.90;;;;;;6193168;23;20020;-81
2022/12/20 08:31:07;;;;;;;0.20;0.20;;;9.40;99.90;;;;;;6218022;23;20020;-81
2022/12/20 08:33:34;;;;;;;0.20;0.10;;;9.40;99.90;;;;;;6216727;23;20066;-82
2022/12/20 08:36:05;;;;;;;0.30;0.17;;;9.50;99.90;;;;;;6191965;23;20340;-82
2022/12/20 08:38:31;;;;;;;0.65;0.32;;;9.50;99.90;;;;;;6217000;23;20024;-81
2022/12/20 08:41:24;;;;;;;1.60;0.37;;;9.50;99.90;;;;;;6219765;23;20467;-79
2022/12/20 08:43:49;;;;;;;0.40;0.40;;;9.50;99.90;;;;;;6189504;23;20024;-81
2022/12/20 08:46:15;;;;;;;0.23;0.23;;;9.50;99.90;;;;;;6194591;23;20016;-80
2022/12/20 08:48:41;;;;;;;0.63;0.50;;;9.50;99.90;;;;;;6217944;23;20016;-80
2022/12/20 08:51:09;;;;;;;0.57;0.57;;;9.50;99.90;;;;;;6219165;23;20830;-80
2022/12/20 08:53:36;;;;;;;0.82;0.63;;;9.50;99.90;;;;;;6194307;23;20020;-80
2022/12/20 08:56:16;;;;;;;0.43;0.28;;;9.50;99.90;;;;;;6170618;23;20050;-80
2022/12/20 08:58:43;;;;;;;2.05;0.82;;;9.50;99.90;;;;;;6220385;23;20012;-78
2022/12/20 09:01:14;;;;;;;0.20;0.17;;;9.50;99.90;;;;;;6245692;23;20024;-80
2022/12/20 09:03:40;;;;;;;0.75;0.30;;;9.50;99.90;;;;;;6194793;23;20016;-80
2022/12/20 09:06:08;;;;;;;0.40;0.30;;;9.40;99.90;;;;;;6194556;23;20464;-81
2022/12/20 09:08:35;;;;;;;0.73;0.50;;;9.50;99.90;;;;;;6217418;23;20549;-81
2022/12/20 09:11:04;;;;;;;;;;;9.50;99.90;;;;;;6246556;23;20020;-81
2022/12/20 09:13:29;;;;;;;0.43;0.20;;;9.40;99.90;;;;;;6219214;23;19916;-81
2022/12/20 09:15:55;;;;;;;0.10;0.10;;;9.40;99.90;;;;;;6219960;23;20081;-81
2022/12/20 09:18:21;;;;;;;0.17;0.17;;;9.40;99.90;;;;;;6244173;23;20031;-84
2022/12/20 09:20:46;;;;;;;0.60;0.37;;;9.40;99.90;;;;;;6246321;23;20023;-81
2022/12/20 09:23:12;;;;;;;0.67;0.27;;;9.40;99.90;;;;;;6194209;23;20016;-81
2022/12/20 09:25:38;;;;;;;0.10;0.10;;;9.50;99.90;;;;;;6194124;23;20361;-82
2022/12/20 09:28:04;;;;;;;1.00;0.30;;;9.50;99.90;;;;;;6219667;23;20020;-81
2022/12/20 09:30:30;;;;;;;0.32;0.30;;;9.50;99.90;;;;;;6193811;23;20250;-81
2022/12/20 09:32:56;;;;;;;0.27;0.27;;;9.50;99.90;;;;;;6169887;23;20016;-79
2022/12/20 09:35:21;;;;;;;0.30;0.30;;;9.50;99.90;;;;;;6169000;23;20426;-82
2022/12/20 09:37:47;;;;;;;0.10;0.10;;;9.50;99.90;;;;;;6194713;23;20024;-81
2022/12/20 09:40:19;;;;;;;0.30;0.20;;;9.60;99.90;;;;;;6170194;23;20091;-81
2022/12/20 09:42:46;;;;;;;1.40;0.30;;;9.60;99.90;;;;;;6220172;23;20357;-81
2022/12/20 09:45:23;;;;;;;0.20;0.20;;;9.60;99.90;;;;;;6195206;23;20341;-81
2022/12/20 09:47:49;;;;;;;0.35;0.35;;;9.60;99.90;;;;;;6194939;23;20027;-81
2022/12/20 09:50:16;;;;;;;0.75;0.38;;;9.60;99.90;;;;;;6246557;23;20323;-81
2022/12/20 09:53:07;;;;;;;1.00;0.63;;;9.60;99.90;;;;;;6193653;23;20012;-81
2022/12/20 09:55:45;;;;;;;0.90;0.30;;;9.60;99.90;;;;;;6219314;23;20016;-81
2022/12/20 09:58:17;;;;;;;0.60;0.30;;;9.60;99.90;;;;;;6194600;23;20062;-81
2022/12/20 10:00:46;;;;;;;0.45;0.45;;;9.60;99.90;;;;;;6218951;23;20013;-81
2022/12/20 10:03:19;;;;;;;0.20;0.13;;;9.60;99.90;;;;;;6246665;23;20039;-81
2022/12/20 10:05:53;;;;;;;0.30;0.30;;;9.60;99.90;;;;;;6245714;23;20105;-81
2022/12/20 10:08:36;;;;;;;0.00;0.00;;;9.60;99.90;;;;;;6218993;23;20012;-81
2022/12/20 10:11:08;;;;;;;0.20;0.20;;;9.60;99.90;;;;;;6246700;23;20020;-81
2022/12/20 10:13:59;;;;;;;0.22;0.22;;;9.60;99.90;;;;;;6246111;23;20022;-82
2022/12/20 10:16:44;;;;;;;0.22;0.22;;;9.50;99.90;;;;;;6219375;23;20019;-81
2022/12/20 10:19:47;;;;;;;0.17;0.17;;;9.50;99.90;;;;;;6220039;23;20086;-81
2022/12/20 10:22:16;;;;;;;0.38;0.30;;;9.50;99.90;;;;;;6219663;23;20012;-80
2022/12/20 10:24:50;;;;;;;0.20;0.05;;;9.50;99.90;;;;;;6193814;23;20091;-80
2022/12/20 10:27:20;;;;;;;0.25;0.20;;;9.40;99.90;;;;;;6246458;23;20089;-80
2022/12/20 10:29:48;;;;;;;0.30;0.30;;;9.40;99.90;;;;;;6245727;23;20334;-81
2022/12/20 10:32:21;;;;;;;0.95;0.35;;;9.40;99.90;;;;;;6219444;23;20424;-81
2022/12/20 10:35:25;;;;;;;0.20;0.20;;;9.40;99.90;;;;;;6219174;23;20024;-81
2022/12/20 10:38:06;;;;;;;0.28;0.28;;;9.40;99.90;;;;;;6096188;23;20018;-81
2022/12/20 10:40:35;;;;;;;1.10;0.30;;;9.40;99.90;;;;;;6202016;23;20031;-81
2022/12/20 10:43:02;;;;;;;0.30;0.30;;;9.40;99.90;;;;;;6214438;23;20115;-83
2022/12/20 10:45:33;;;;;;;0.55;0.13;;;9.40;99.90;;;;;;6241113;23;20016;-82
2022/12/20 10:48:01;;;;;;;0.35;0.35;;;9.40;99.90;;;;;;6216471;23;20023;-82
2022/12/20 10:50:28;;;;;;;0.10;0.10;;;9.40;99.90;;;;;;6189777;23;20066;-82
2022/12/20 10:53:09;;;;;;;0.30;0.20;;;9.40;99.90;;;;;;6167102;23;20101;-80
2022/12/20 10:55:34;;;;;;;0.20;0.05;;;9.40;99.90;;;;;;6216875;23;20023;-81
2022/12/20 10:58:34;;;;;;;0.77;0.17;;;9.40;99.90;;;;;;6216735;23;20020;-82
2022/12/20 11:01:17;;;;;;;0.40;0.30;;;9.40;99.90;;;;;;6180788;23;20023;-83
2022/12/20 11:03:52;;;;;;;1.27;0.32;;;9.40;99.90;;;;;;6214164;23;20016;-83
2022/12/20 11:06:19;;;;;;;0.50;0.20;;;9.40;99.90;;;;;;6216848;23;20500;-81
2022/12/20 11:08:47;;;;;;;0.20;0.13;;;9.40;99.90;;;;;;6191062;23;20066;-84
2022/12/20 11:11:20;;;;;;;0.20;0.20;;;9.40;99.90;;;;;;6243171;23;20016;-82
2022/12/20 11:13:47;;;;;;;0.10;0.10;;;9.40;99.90;;;;;;6214847;23;20059;-85
2022/12/20 11:16:36;;;;;;;0.30;0.20;;;9.40;99.90;;;;;;6215924;23;20398;-85
2022/12/20 11:19:21;;;;;;;1.00;0.40;;;9.40;99.90;;;;;;6216361;23;20055;-83
2022/12/20 11:22:19;;;;;;;0.43;0.32;;;9.40;99.90;;;;;;6214923;23;20020;-82
2022/12/20 11:24:58;;;;;;;0.38;0.10;;;9.40;99.90;;;;;;6213101;23;20103;-82
2022/12/20 11:27:31;;;;;;;0.50;0.40;;;9.50;99.90;;;;;;6191138;23;20099;-81
2022/12/20 11:30:10;;;;;;;0.30;0.30;;;9.50;99.90;;;;;;6215572;23;20023;-81
2022/12/20 11:33:18;;;;;;;1.52;0.70;;;9.50;99.90;;;;;;6190645;23;20020;-83
2022/12/20 11:36:01;;;;;;;0.32;0.30;;;9.50;99.90;;;;;;6189414;23;20055;-79
2022/12/20 11:38:42;;;;;;;0.38;0.38;;;9.50;99.90;;;;;;6216069;23;20019;-81
2022/12/20 11:41:28;;;;;;;0.50;0.28;;;9.50;99.90;;;;;;6219036;23;20109;-83
2022/12/20 11:44:25;;;;;;;0.43;0.35;;;9.50;99.90;;;;;;6217297;23;20015;-87
2022/12/20 11:47:22;;;;;;;0.30;0.30;;;9.50;99.90;;;;;;6190291;23;20055;-85
2022/12/20 11:49:53;;;;;;;0.43;0.35;;;9.60;99.90;;;;;;6215309;23;20504;-85
2022/12/20 11:52:33;;;;;;;0.93;0.60;;;9.60;99.90;;;;;;6190114;23;20441;-84
2022/12/20 11:55:12;;;;;;;0.13;0.13;;;9.60;99.90;;;;;;6190024;23;20121;-84
2022/12/20 11:58:02;;;;;;;0.20;0.20;;;9.60;99.90;;;;;;6214735;23;20020;-85
2022/12/20 12:00:31;;;;;;;0.10;0.10;;;9.60;99.90;;;;;;6161455;23;20694;-84
2022/12/20 12:03:01;;;;;;;0.40;0.40;;;9.60;99.90;;;;;;6215228;23;20016;-84
2022/12/20 12:05:47;;;;;;;0.00;0.00;;;9.60;99.90;;;;;;6189761;23;20027;-84
2022/12/20 12:08:28;;;;;;;0.20;0.20;;;9.60;99.90;;;;;;6190357;23;20032;-85
2022/12/20 12:11:19;;;;;;;0.10;0.10;;;9.60;99.90;;;;;;6215268;23;20388;-84
2022/12/20 12:13:45;;;;;;;0.20;0.20;;;9.60;99.90;;;;;;6214891;23;20030;-84
2022/12/20 12:16:29;;;;;;;0.30;0.30;;;9.60;99.90;;;;;;6138970;23;20098;-85
2022/12/20 12:18:58;;;;;;;0.13;0.10;;;9.60;99.90;;;;;;6188780;23;20016;-84
2022/12/20 12:21:43;;;;;;;0.35;0.30;;;9.70;99.90;;;;;;6198999;23;20479;-84
2022/12/20 12:24:28;;;;;;;0.43;0.30;;;9.60;99.90;;;;;;6191800;23;20020;-82
2022/12/20 12:26:54;;;;;;;0.85;0.30;;;9.60;99.90;;;;;;6243118;23;20016;-83
2022/12/20 12:29:21;;;;;;;0.38;0.38;;;9.60;99.90;;;;;;6212738;23;20035;-82
2022/12/20 12:31:54;;;;;;;;;;;9.60;99.90;;;;;;6237423;23;20023;-81
2022/12/20 12:34:35;;;;;;;0.35;0.20;;;9.60;99.90;;;;;;6214495;23;19926;-82
2022/12/20 12:37:19;;;;;;;0.52;0.50;;;9.60;99.90;;;;;;6213556;23;20074;-83
2022/12/20 12:40:11;;;;;;;0.38;0.38;;;9.60;99.90;;;;;;6214974;23;20081;-83
2022/12/20 12:42:58;;;;;;;0.30;0.30;;;9.50;99.90;;;;;;6241238;23;20016;-81
2022/12/20 12:45:33;;;;;;;1.67;0.50;;;9.50;99.90;;;;;;6243097;23;20074;-81
2022/12/20 12:48:02;;;;;;;0.10;0.10;;;9.50;99.90;;;;;;6189162;23;20020;-81
2022/12/20 12:50:31;;;;;;;0.25;0.25;;;9.50;99.90;;;;;;6190442;23;20058;-81
2022/12/20 12:53:06;;;;;;;0.60;0.60;;;9.50;99.90;;;;;;6213125;23;20012;-83
2022/12/20 12:55:39;;;;;;;1.70;0.50;;;9.60;99.90;;;;;;6217454;23;20020;-80
2022/12/20 12:58:34;;;;;;;0.17;0.10;;;9.60;99.90;;;;;;6241521;23;20616;-81
2022/12/20 13:01:03;;;;;;;0.30;0.20;;;9.50;99.90;;;;;;6139674;23;20027;-81
2022/12/20 13:03:41;;;;;;;0.25;0.25;;;9.60;99.90;;;;;;6218089;23;20369;-79
2022/12/20 13:06:22;;;;;;;0.40;0.40;;;9.60;99.90;;;;;;6192521;23;20021;-81
2022/12/20 13:08:49;;;;;;;0.45;0.30;;;9.50;99.90;;;;;;6216731;23;20042;-82
2022/12/20 13:11:39;;;;;;;0.35;0.20;;;9.50;99.90;;;;;;6165274;23;20020;-80
2022/12/20 13:14:17;;;;;;;0.32;0.32;;;9.50;99.90;;;;;;6217011;23;20016;-80
2022/12/20 13:16:44;;;;;;;0.60;0.60;;;9.60;99.90;;;;;;6244626;23;20066;-81
2022/12/20 13:19:28;;;;;;;0.28;0.28;;;9.50;99.90;;;;;;6192402;23;20081;-81
2022/12/20 13:22:18;;;;;;;0.30;0.20;;;9.50;99.90;;;;;;6191825;23;20020;-82